Ancram, New York
Current Conditions -  °F | °C
As of 12:53 PM on Monday 24 Nov 2014 (Local Time) from KPOU Reporting Station
Broken Clouds Broken Clouds  
Wind Chill: 69°   Ceiling: 4600
Heat Index: 69°   Visibility: 10mi
Dew Point: 59°   Wind: 14mph
Humidity: 70%   Direction: 180°S
Pressure: 29.55"   Gusts: 22mph
Location:  42.05°N, 73.64°W
Report Text: KPOU 241753Z 18012G19KT 10SM FEW029 FEW038 BKN046 21/15 A2955 RMK AO2 SLP002 60001 T02060150 10206 20172 58030
Loading
Personal Weather Stations






























Interactive Weather Map New forecast layout! Learn more

10-Day Weather Forecast

Advertisements
Track Severe Weather on mobile